• Join FlightAware (Why Join?)
  • Login
  • US Flag 
07:16AM EDT


 

Airport Tracker/Info


-or-


 

Live Flight TrackerFlight Track Log ✈ WJA513 ✈ 26-Apr-2012 ✈ CYEG - CYYJ

Flight Track Log - Related Links

Times and Time Zones

All times are in EDT time to prevent confusion due to time zone crossing. See the WJA513 flight status page for this flight to view local times or setup timezone preferences in your user account.

Time Position Orientation Groundspeed Altitude Reporting Facility
EDT Latitude Longitude Course Direction KTS MPH feet Rate Location/Type
09:24AM 53.2667 -113.5833 149° Southeast 120 138 3,800  Level Edmonton Center
09:25AM 53.2167 -113.5333 158° South 190 219 5,700 1,980 Climbing Edmonton Center
09:26AM 53.1667 -113.5000 255° West 220 253 7,800 2,520 Climbing Edmonton Center
09:27AM 53.1500 -113.6000 244° Southwest 280 322 10,800 3,120 Climbing Edmonton Center
09:28AM 53.1000 -113.7667 247° West 320 368 14,100 3,120 Climbing Edmonton Center
09:29AM 53.0667 -113.9000 244° Southwest 340 391 17,100 2,880 Climbing Edmonton Center
09:30AM 53.0167 -114.0667 241° Southwest 360 414 19,900 2,940 Climbing Edmonton Center
09:31AM 52.9667 -114.2167 252° West 370 426 23,000 2,700 Climbing Edmonton Center
09:32AM 52.9333 -114.3833 234° Southwest 380 437 25,400 2,400 Climbing Edmonton Center
09:33AM 52.8667 -114.5333 230° Southwest 380 437 27,900 2,280 Climbing Edmonton Center
09:34AM 52.8000 -114.6667 227° Southwest 380 437 30,000 2,160 Climbing Edmonton Center
09:35AM 52.7333 -114.7833 237° Southwest 390 449 32,300 2,040 Climbing Edmonton Center
09:36AM 52.6667 -114.9500 231° Southwest 380 437 34,100 1,560 Climbing Edmonton Center
09:37AM 52.6000 -115.0833 237° Southwest 380 437 35,500 1,380 Climbing Edmonton Center
09:38AM 52.5333 -115.2500 227° Southwest 390 449 36,900 1,200 Climbing Edmonton Center
09:39AM 52.4667 -115.3667 234° Southwest 400 460 37,900 1,140 Climbing Edmonton Center
09:40AM 52.4000 -115.5167 234° Southwest 400 460 39,200 1,020 Climbing Edmonton Center
09:41AM 52.3333 -115.6667 234° Southwest 400 460 40,000 360 Climbing Edmonton Center
09:42AM 52.2667 -115.8167 241° Southwest 400 460 40,000  Level Edmonton Center
09:43AM 52.2167 -115.9667 234° Southwest 400 460 40,000  Level Edmonton Center
09:44AM 52.1500 -116.1167 234° Southwest 400 460 40,000  Level Edmonton Center
09:45AM 52.0833 -116.2667 234° Southwest 400 460 40,000  Level Edmonton Center
09:46AM 52.0167 -116.4167 234° Southwest 390 449 40,000  Level Edmonton Center
09:47AM 51.9500 -116.5667 242° Southwest 400 460 40,000  Level Edmonton Center
09:48AM 51.9000 -116.7167 234° Southwest 390 449 40,000  Level Edmonton Center
09:49AM 51.8333 -116.8667 242° Southwest 390 449 40,000  Level Edmonton Center
09:50AM 51.7833 -117.0167 234° Southwest 380 437 40,000  Level Edmonton Center
09:51AM 51.7167 -117.1667 234° Southwest 390 449 40,000  Level Edmonton Center
09:52AM 51.6500 -117.3167 223° Southwest 390 449 40,000  Level Edmonton Center
09:54AM 51.5833 -117.4167 242° Southwest 400 460 40,000  Level Vancouver Center
09:55AM 51.5333 -117.5667 240° Southwest 400 460 40,000  Level Vancouver Center
09:55AM 51.4667 -117.7500 228° Southwest 400 460 40,000  Level Edmonton Center
09:56AM 51.4000 -117.8667 237° Southwest 400 460 40,000  Level Edmonton Center
09:57AM 51.3333 -118.0333 228° Southwest 400 460 40,000  Level Edmonton Center
09:58AM 51.2667 -118.1500 240° Southwest 400 460 40,000  Level Edmonton Center
09:59AM 51.2000 -118.3333 231° Southwest 400 460 40,000  Level Edmonton Center
10:00AM 51.1333 -118.4667 235° Southwest 400 460 40,000  Level Edmonton Center
10:01AM 51.0667 -118.6167 232° Southwest 410 472 40,000  Level Edmonton Center
10:02AM 51.0000 -118.7500 235° Southwest 400 460 40,000  Level Edmonton Center
10:03AM 50.9333 -118.9000 232° Southwest 400 460 40,000  Level Edmonton Center
10:04AM 50.8667 -119.0333 235° Southwest 400 460 40,000  Level Edmonton Center
10:05AM 50.8000 -119.1833 225° Southwest 400 460 40,000  Level Edmonton Center
10:06AM 50.7167 -119.3167 242° Southwest 400 460 40,000  Level Edmonton Center
10:07AM 50.6667 -119.4667 228° Southwest 400 460 40,000  Level Edmonton Center
10:09AM 50.6000 -119.5833 229° Southwest 390 449 40,000  Level Vancouver Center
10:10AM 50.5167 -119.7333 232° Southwest 390 449 40,000  Level Vancouver Center
10:11AM 50.4500 -119.8667 240° Southwest 390 449 40,000  Level Vancouver Center
10:12AM 50.4000 -120.0000 232° Southwest 390 449 40,000  Level Vancouver Center
10:13AM 50.3333 -120.1333 232° Southwest 400 460 40,000  Level Vancouver Center
10:14AM 50.2667 -120.2667 226° Southwest 400 460 40,000  Level Vancouver Center
10:15AM 50.1833 -120.4000 243° Southwest 400 460 40,000  Level Vancouver Center
10:16AM 50.1333 -120.5500 229° Southwest 410 472 40,000  Level Vancouver Center
10:17AM 50.0500 -120.7000 232° Southwest 410 472 40,000  Level Vancouver Center
10:18AM 49.9833 -120.8333 226° Southwest 410 472 40,000  Level Vancouver Center
10:19AM 49.9000 -120.9667 245° Southwest 410 472 40,000  Level Vancouver Center
10:20AM 49.8500 -121.1333 243° Southwest 410 472 40,000  Level Vancouver Center
10:21AM 49.8000 -121.2833 245° Southwest 410 472 40,000 -1,140 Level Vancouver Center
10:22AM 49.7500 -121.4500 232° Southwest 400 460 37,800 -2,340 Descending Vancouver Center
10:23AM 49.6833 -121.5833 240° Southwest 400 460 35,400 -2,040 Descending Vancouver Center
10:24AM 49.6333 -121.7167 240° Southwest 370 426 33,800 -1,320 Descending Vancouver Center
10:25AM 49.5833 -121.8500 237° Southwest 350 403 32,800 -1,440 Descending Vancouver Center
10:26AM 49.5333 -121.9667 246° West 340 391 31,000 -1,920 Descending Vancouver Center
10:27AM 49.5000 -122.0833 237° Southwest 330 380 29,000 -2,040 Descending Vancouver Center
10:28AM 49.4500 -122.2000 233° Southwest 340 391 27,000 -2,100 Descending Vancouver Center
10:29AM 49.3833 -122.3333 240° Southwest 340 391 24,900 -2,040 Descending Vancouver Center
10:30AM 49.3333 -122.4667 233° Southwest 330 380 23,000 -2,040 Descending Vancouver Center
10:31AM 49.2833 -122.5667 249° West 330 380 20,900 -1,680 Descending Vancouver Center
10:32AM 49.2500 -122.7000 233° Southwest 330 380 19,700 -1,140 Descending Vancouver Center
10:33AM 49.2000 -122.8000 240° Southwest 310 357 18,700 -1,200 Descending Vancouver Center
10:34AM 49.1500 -122.9333 233° Southwest 310 357 17,300 -1,500 Descending Vancouver Center
10:35AM 49.1000 -123.0333 243° Southwest 300 345 15,800 -1,200 Descending Vancouver Center
10:36AM 49.0667 -123.1333 206° Southwest 290 334 14,900 -1,140 Descending Vancouver Center
10:37AM 49.0000 -123.1833 204° Southwest 250 288 13,600 -1,080 Descending Vancouver Center
10:38AM 48.9500 -123.2167 202° Southwest 250 288 12,800 -1,740 Descending Vancouver Center
10:39AM 48.8667 -123.2667 171° South 260 299 10,200 -2,100 Descending Vancouver Center
10:40AM 48.8000 -123.2500 156° South 260 299 8,600 -1,500 Descending Vancouver Center
10:41AM 48.7500 -123.2167 154° Southeast 250 288 7,200 -1,500 Descending Vancouver Center
10:42AM 48.6833 -123.1667 171° South 240 276 5,600 -1,560 Descending Vancouver Center
10:43AM 48.6167 -123.1500 225° Southwest 240 276 4,100 -1,200 Descending Vancouver Center
10:44AM 48.5833 -123.2000 291° West 210 242 3,200 -1,020 Descending Vancouver Center
10:45AM 48.6000 -123.2667 270° West 180 207 2,100 -900 Descending Vancouver Center
10:46AM 48.6000 -123.3167 297° West 140 161 1,400 -720 Descending Vancouver Center
10:47AM 48.6167 -123.3667 297° West 120 138 700 -720 Descending Vancouver Center